createdAt,value
2018-03-31T00:04:52.487Z,2.04
2018-03-31T00:10:43.165Z,1.49
2018-03-31T00:16:33.903Z,2.05
2018-03-31T00:22:24.472Z,1.71
2018-03-31T00:28:15.144Z,1.86
2018-03-31T00:34:05.818Z,1.51
2018-03-31T00:39:56.434Z,1.75
2018-03-31T00:45:47.079Z,1.6
2018-03-31T00:51:37.748Z,1.47
2018-03-31T00:57:28.401Z,1.68
2018-03-31T01:03:19.088Z,2.8
2018-03-31T01:09:09.774Z,1.91
2018-03-31T01:15:00.370Z,1.2
2018-03-31T01:20:51.084Z,1.34
2018-03-31T01:26:41.721Z,1.36
2018-03-31T01:32:32.417Z,1.87
2018-03-31T01:38:23.024Z,1.73
2018-03-31T01:44:13.703Z,1.61
2018-03-31T01:50:04.379Z,1.6
2018-03-31T01:55:55.090Z,1.42
2018-03-31T02:01:45.682Z,1.44
2018-03-31T02:07:36.381Z,1.87
2018-03-31T02:13:27.063Z,1.26
2018-03-31T02:19:17.780Z,1.28
2018-03-31T02:25:08.410Z,1.3
2018-03-31T02:30:59.087Z,1.62
2018-03-31T02:36:49.671Z,1.37
2018-03-31T02:42:40.332Z,1.4
2018-03-31T02:48:31.006Z,1.35
2018-03-31T02:54:21.694Z,1.71
2018-03-31T03:00:12.363Z,1.54
2018-03-31T03:06:03.018Z,1.86
2018-03-31T03:11:53.700Z,2.49
2018-03-31T03:17:44.339Z,2.49
2018-03-31T03:23:35.039Z,2.48
2018-03-31T03:29:25.665Z,1.85
2018-03-31T03:35:16.371Z,2.24
2018-03-31T03:41:06.968Z,2.41
2018-03-31T03:46:57.656Z,2.07
2018-03-31T03:52:48.313Z,1.68
2018-03-31T03:58:39.032Z,1.56
2018-03-31T04:04:29.590Z,1.59
2018-03-31T04:10:20.248Z,1.48
2018-03-31T04:16:10.947Z,2.03
2018-03-31T04:22:01.581Z,1.62
2018-03-31T04:27:52.282Z,1.4
2018-03-31T04:33:42.956Z,1.37
2018-03-31T04:39:33.617Z,2.03
2018-03-31T04:45:24.196Z,1.71
2018-03-31T04:51:14.908Z,1.42
2018-03-31T04:57:05.603Z,2.03
2018-03-31T05:02:56.207Z,1.65
2018-03-31T05:08:46.843Z,1.76
2018-03-31T05:14:37.485Z,2.15
2018-03-31T05:20:28.142Z,1.71
2018-03-31T05:26:18.827Z,1.75
2018-03-31T05:32:09.519Z,2.14
2018-03-31T05:38:00.116Z,3.4
2018-03-31T05:43:50.779Z,3.07
2018-03-31T05:49:41.412Z,3.61
2018-03-31T05:55:32.042Z,3.3
2018-03-31T06:01:22.743Z,3.22
2018-03-31T06:07:13.369Z,2.99
2018-03-31T06:13:04.004Z,3.67
2018-03-31T06:18:54.654Z,3.42
2018-03-31T06:24:45.374Z,2.96
2018-03-31T06:30:36.013Z,2.95
2018-03-31T06:36:26.634Z,2.91
2018-03-31T06:42:17.343Z,2.8
2018-03-31T06:48:07.965Z,2.85
2018-03-31T06:53:58.622Z,3.86
2018-03-31T06:59:49.286Z,3.12
2018-03-31T07:05:39.897Z,2.9
2018-03-31T07:11:30.584Z,2.37
2018-03-31T07:17:21.265Z,3.87
2018-03-31T07:23:11.878Z,2.14
2018-03-31T07:29:02.575Z,1.05
2018-03-31T07:34:53.205Z,1.13
2018-03-31T07:40:43.857Z,0.68
2018-03-31T07:46:34.482Z,0.21
2018-03-31T07:52:25.104Z,0.2
2018-03-31T07:58:15.703Z,0.2
2018-03-31T08:04:06.332Z,0.2
2018-03-31T08:09:57.047Z,0.2
2018-03-31T08:15:47.621Z,0.2
2018-03-31T08:21:38.221Z,0.26
2018-03-31T08:27:28.838Z,0.26
2018-03-31T08:33:19.483Z,0.25
2018-03-31T08:39:10.101Z,0.2
2018-03-31T08:45:00.730Z,0.2
2018-03-31T08:50:51.396Z,0.25
2018-03-31T08:56:42.019Z,0.2
2018-03-31T09:02:32.651Z,0.27
2018-03-31T09:08:23.300Z,0.2
2018-03-31T09:14:13.898Z,0.2
2018-03-31T09:20:04.546Z,0.23
2018-03-31T09:25:55.231Z,0.23
2018-03-31T09:31:45.848Z,0.2
2018-03-31T09:37:36.575Z,0.2
2018-03-31T09:43:27.132Z,0.21
2018-03-31T09:49:17.819Z,0.2
2018-03-31T09:55:08.394Z,0.26
2018-03-31T10:00:59.070Z,0.2
2018-03-31T10:06:49.728Z,0.26
2018-03-31T10:12:40.336Z,0.2
2018-03-31T10:18:30.946Z,0.2
2018-03-31T10:24:21.647Z,0.2
2018-03-31T10:30:12.295Z,0.2
2018-03-31T10:36:02.925Z,0.2
2018-03-31T10:41:53.522Z,0.2
2018-03-31T10:47:44.171Z,0.2
2018-03-31T10:53:34.834Z,0.23
2018-03-31T10:59:25.721Z,0.26
2018-03-31T11:05:16.130Z,0.22
2018-03-31T11:11:06.763Z,0.22
2018-03-31T11:16:57.424Z,0.21
2018-03-31T11:22:48.041Z,0.76
2018-03-31T11:28:38.709Z,0.61
2018-03-31T11:34:29.320Z,0.61
2018-03-31T11:40:20.011Z,0.89
2018-03-31T11:46:10.591Z,0.74
2018-03-31T11:52:01.275Z,0.82
2018-03-31T11:57:51.882Z,0.55
2018-03-31T12:03:42.529Z,0.62
2018-03-31T12:09:33.159Z,0.55
2018-03-31T12:15:23.763Z,0.62
2018-03-31T12:21:14.431Z,0.45
2018-03-31T12:27:05.102Z,0.62
2018-03-31T12:32:55.729Z,0.76
2018-03-31T12:38:46.374Z,0.62
2018-03-31T12:44:37.028Z,0.8
2018-03-31T12:50:27.719Z,0.8
2018-03-31T12:56:18.357Z,1.07
2018-03-31T13:02:08.991Z,1.25
2018-03-31T13:07:59.706Z,0.66
2018-03-31T13:13:50.397Z,0.76
2018-03-31T13:19:41.112Z,0.8
2018-03-31T13:25:31.815Z,0.73
2018-03-31T13:31:22.467Z,0.88
2018-03-31T13:37:13.176Z,0.73
2018-03-31T13:43:03.852Z,0.73
2018-03-31T13:48:54.575Z,1.41
2018-03-31T13:54:45.233Z,0.73
2018-03-31T14:00:35.937Z,1.05
2018-03-31T14:06:26.627Z,0.76
2018-03-31T14:12:17.320Z,0.66
2018-03-31T14:18:08.026Z,0.85
2018-03-31T14:23:58.790Z,0.66
2018-03-31T14:29:49.405Z,0.58
2018-03-31T14:35:40.087Z,0.9
2018-03-31T14:41:30.801Z,0.66
2018-03-31T14:47:21.505Z,0.82
2018-03-31T14:53:12.180Z,0.61
2018-03-31T14:59:02.918Z,0.73
2018-03-31T15:04:53.559Z,1.07
2018-03-31T15:10:44.362Z,0.69
2018-03-31T15:16:35.011Z,0.82
2018-03-31T15:22:25.728Z,0.91
2018-03-31T15:28:16.358Z,0.74
2018-03-31T15:34:07.051Z,0.64
2018-03-31T15:39:57.764Z,0.6
2018-03-31T15:45:48.431Z,0.83
2018-03-31T15:51:39.173Z,0.77
2018-03-31T15:57:29.813Z,0.77
2018-03-31T16:03:20.481Z,0.75
2018-03-31T16:09:11.188Z,0.63
2018-03-31T16:15:01.866Z,0.84
2018-03-31T16:20:52.520Z,1.6
2018-03-31T16:26:43.224Z,1.92
2018-03-31T16:32:33.868Z,1.05
2018-03-31T16:38:24.572Z,1.27
2018-03-31T16:44:15.236Z,1.59
2018-03-31T16:50:05.870Z,1.77
2018-03-31T16:55:56.541Z,1.51
2018-03-31T17:01:47.218Z,1.95
2018-03-31T17:07:37.879Z,1.73
2018-03-31T17:13:28.514Z,1.54
2018-03-31T17:19:19.251Z,1.42
2018-03-31T17:25:09.857Z,2.36
2018-03-31T17:31:00.552Z,1.44
2018-03-31T17:36:51.279Z,2.15
2018-03-31T17:42:41.848Z,2.4
2018-03-31T17:48:32.498Z,1.42
2018-03-31T17:54:23.150Z,2.15
2018-03-31T18:00:13.838Z,1.31
2018-03-31T18:06:04.480Z,1.13
2018-03-31T18:11:55.187Z,1.44
2018-03-31T18:17:45.815Z,1.56
2018-03-31T18:23:36.440Z,1.29
2018-03-31T18:29:27.086Z,1.66
2018-03-31T18:35:17.777Z,1.66
2018-03-31T18:41:08.399Z,1.97
2018-03-31T18:46:59.088Z,1.9
2018-03-31T18:52:49.716Z,1.95
2018-03-31T18:58:40.322Z,2.06
2018-03-31T19:04:31.014Z,1.79
2018-03-31T19:10:21.691Z,1.83
2018-03-31T19:16:12.286Z,1.37
2018-03-31T19:22:02.973Z,1.77
2018-03-31T19:27:53.607Z,1.9
2018-03-31T19:33:44.218Z,1.84
2018-03-31T19:39:34.914Z,2.16
2018-03-31T19:45:25.530Z,2.19
2018-03-31T19:51:16.193Z,1.2
2018-03-31T19:57:06.851Z,1.66
2018-03-31T20:02:57.474Z,1.33
2018-03-31T20:08:48.115Z,1.61
2018-03-31T20:14:38.750Z,1.54
2018-03-31T20:20:29.412Z,1.51
2018-03-31T20:26:20.084Z,2.15
2018-03-31T20:32:10.687Z,1.93
2018-03-31T20:38:01.335Z,1.04
2018-03-31T20:43:51.988Z,0.97
2018-03-31T20:49:42.650Z,0.8
2018-03-31T20:55:33.265Z,1.42
2018-03-31T21:01:23.932Z,1.03
2018-03-31T21:07:14.535Z,1.26
2018-03-31T21:13:05.150Z,1.11
2018-03-31T21:18:55.798Z,1.37
2018-03-31T21:24:46.425Z,1.27
2018-03-31T21:30:37.028Z,0.98
2018-03-31T21:36:27.685Z,1.05
2018-03-31T21:42:18.344Z,1.38
2018-03-31T21:48:08.938Z,1.35
2018-03-31T21:53:59.578Z,1.42
2018-03-31T21:59:50.149Z,1.93
2018-03-31T22:05:40.855Z,1.42
2018-03-31T22:11:31.478Z,1.52
2018-03-31T22:17:22.055Z,1.31
2018-03-31T22:23:12.726Z,1.71
2018-03-31T22:29:03.307Z,1.77
2018-03-31T22:34:53.976Z,1.59
2018-03-31T22:40:44.603Z,1.71
2018-03-31T22:46:35.248Z,1.91
2018-03-31T22:52:25.876Z,2.01
2018-03-31T22:58:16.468Z,1.58
2018-03-31T23:04:07.132Z,1.75
2018-03-31T23:09:57.729Z,2.2
2018-03-31T23:15:48.372Z,2.28
2018-03-31T23:21:39.003Z,1.84
2018-03-31T23:27:29.677Z,1.65
2018-03-31T23:33:20.254Z,1.85
2018-03-31T23:39:10.892Z,1.85
2018-03-31T23:45:01.514Z,2.12
2018-03-31T23:50:52.187Z,2.06
2018-03-31T23:56:42.827Z,1.56
